createdAt,value
2023-05-15T00:02:00.470Z,14.40
2023-05-15T00:04:27.187Z,14.40
2023-05-15T00:06:53.929Z,14.50
2023-05-15T00:09:20.665Z,14.50
2023-05-15T00:11:47.367Z,14.50
2023-05-15T00:14:14.012Z,14.50
2023-05-15T00:16:41.124Z,14.60
2023-05-15T00:19:08.121Z,14.60
2023-05-15T00:21:34.865Z,14.70
2023-05-15T00:24:01.692Z,14.80
2023-05-15T00:26:28.377Z,14.60
2023-05-15T00:28:55.076Z,14.60
2023-05-15T00:31:21.694Z,14.50
2023-05-15T00:33:48.382Z,14.50
2023-05-15T00:36:15.088Z,14.40
2023-05-15T00:38:41.867Z,14.40
2023-05-15T00:41:10.811Z,14.30
2023-05-15T00:43:40.155Z,14.30
2023-05-15T00:46:07.896Z,14.30
2023-05-15T00:48:35.228Z,14.30
2023-05-15T00:51:02.097Z,14.30
2023-05-15T00:53:29.032Z,14.20
2023-05-15T00:55:58.613Z,14.20
2023-05-15T00:58:28.757Z,14.10
2023-05-15T01:00:56.204Z,14.10
2023-05-15T01:03:24.149Z,14.10
2023-05-15T01:05:51.564Z,14.20
2023-05-15T01:08:27.777Z,14.20
2023-05-15T01:10:55.470Z,14.10
2023-05-15T01:13:23.160Z,14.30
2023-05-15T01:15:50.544Z,14.40
2023-05-15T01:18:17.517Z,14.20
2023-05-15T01:21:09.890Z,14.20
2023-05-15T01:23:45.582Z,14.20
2023-05-15T01:26:27.071Z,14.10
2023-05-15T01:29:08.427Z,14.10
2023-05-15T01:31:36.766Z,14.20
2023-05-15T01:34:06.969Z,14.20
2023-05-15T01:36:45.018Z,14.30
2023-05-15T01:39:15.942Z,14.30
2023-05-15T01:41:47.931Z,14.30
2023-05-15T01:44:29.098Z,14.30
2023-05-15T01:46:59.272Z,14.40
2023-05-15T01:49:28.075Z,14.30
2023-05-15T01:52:08.816Z,14.30
2023-05-15T01:54:37.112Z,14.20
2023-05-15T01:57:05.463Z,14.30
2023-05-15T01:59:34.460Z,14.20
2023-05-15T02:02:04.081Z,14.30
2023-05-15T02:04:31.554Z,14.30
2023-05-15T02:06:59.593Z,14.30
2023-05-15T02:09:26.803Z,14.20
2023-05-15T02:11:54.632Z,14.10
2023-05-15T02:14:22.616Z,14.20
2023-05-15T02:16:49.329Z,14.20
2023-05-15T02:19:16.174Z,14.10
2023-05-15T02:21:42.936Z,14.10
2023-05-15T02:24:09.579Z,14.10
2023-05-15T02:26:55.041Z,14.00
2023-05-15T02:29:41.945Z,13.90
2023-05-15T02:32:28.704Z,14.00
2023-05-15T02:35:17.841Z,14.00
2023-05-15T02:37:48.296Z,14.00
2023-05-15T02:40:16.463Z,14.00
2023-05-15T02:42:45.937Z,14.00
2023-05-15T02:45:13.375Z,14.10
2023-05-15T02:47:41.007Z,14.10
2023-05-15T02:50:08.777Z,14.10
2023-05-15T02:52:35.594Z,14.20
2023-05-15T02:55:02.494Z,14.20
2023-05-15T02:57:31.959Z,14.30
2023-05-15T02:59:58.784Z,14.30
2023-05-15T03:02:25.637Z,14.30
2023-05-15T03:04:52.402Z,14.30
2023-05-15T03:07:19.108Z,14.40
2023-05-15T03:09:48.937Z,14.30
2023-05-15T03:12:15.604Z,14.40
2023-05-15T03:14:42.271Z,14.40
2023-05-15T03:17:09.055Z,14.40
2023-05-15T03:19:36.003Z,14.60
2023-05-15T03:22:02.715Z,14.50
2023-05-15T03:24:29.373Z,14.50
2023-05-15T03:26:56.017Z,14.50
2023-05-15T03:29:22.645Z,14.50
2023-05-15T03:31:49.292Z,14.50
2023-05-15T03:34:19.026Z,14.50
2023-05-15T03:36:45.719Z,14.60
2023-05-15T03:39:12.380Z,14.70
2023-05-15T03:41:39.005Z,14.60
2023-05-15T03:44:05.830Z,14.60
2023-05-15T03:46:32.572Z,14.70
2023-05-15T03:49:01.750Z,14.60
2023-05-15T03:51:28.412Z,14.60
2023-05-15T03:53:55.304Z,14.60
2023-05-15T03:56:21.985Z,14.50
2023-05-15T03:58:51.482Z,14.50
2023-05-15T04:01:18.109Z,14.60
2023-05-15T04:03:44.808Z,14.60
2023-05-15T04:06:14.261Z,14.60
2023-05-15T04:08:41.617Z,14.60
2023-05-15T04:11:11.533Z,14.70
2023-05-15T04:13:38.163Z,14.60
2023-05-15T04:16:05.152Z,14.60
2023-05-15T04:18:31.817Z,14.70
2023-05-15T04:20:58.568Z,14.70
2023-05-15T04:23:25.880Z,14.70
2023-05-15T04:25:53.682Z,14.60
2023-05-15T04:28:23.310Z,14.60
2023-05-15T04:30:49.923Z,14.60
2023-05-15T04:33:17.738Z,14.50
2023-05-15T04:35:44.551Z,14.50
2023-05-15T04:38:11.305Z,14.40
2023-05-15T04:40:38.022Z,14.30
2023-05-15T04:43:04.655Z,14.30
2023-05-15T04:45:31.336Z,14.20
2023-05-15T04:47:58.114Z,14.20
2023-05-15T04:50:25.051Z,14.20
2023-05-15T04:52:51.998Z,14.40
2023-05-15T04:55:18.778Z,14.50
2023-05-15T04:57:47.005Z,14.40
2023-05-15T05:00:14.590Z,14.40
2023-05-15T05:02:45.302Z,14.50
2023-05-15T05:05:14.618Z,14.60
2023-05-15T05:07:42.389Z,14.60
2023-05-15T05:10:09.628Z,14.70
2023-05-15T05:12:36.369Z,14.80
2023-05-15T05:15:03.213Z,15.00
2023-05-15T05:17:31.092Z,14.90
2023-05-15T05:19:57.757Z,14.90
2023-05-15T05:22:24.427Z,15.00
2023-05-15T05:24:51.108Z,15.20
2023-05-15T05:27:17.898Z,15.20
2023-05-15T05:29:44.608Z,15.30
2023-05-15T05:32:11.320Z,15.20
2023-05-15T05:34:38.186Z,15.40
2023-05-15T05:37:04.961Z,15.40
2023-05-15T05:39:31.634Z,15.40
2023-05-15T05:41:58.345Z,15.40
2023-05-15T05:44:25.848Z,15.40
2023-05-15T05:46:52.976Z,15.70
2023-05-15T05:49:19.663Z,15.70
2023-05-15T05:51:47.124Z,15.70
2023-05-15T05:54:14.993Z,15.50
2023-05-15T05:56:42.499Z,15.40
2023-05-15T05:59:10.639Z,15.40
2023-05-15T06:01:37.329Z,15.30
2023-05-15T06:04:04.212Z,15.20
2023-05-15T06:06:30.935Z,15.10
2023-05-15T06:08:57.687Z,14.90
2023-05-15T06:11:25.506Z,14.80
2023-05-15T06:13:52.700Z,14.80
2023-05-15T06:16:19.437Z,14.70
2023-05-15T06:18:46.182Z,14.60
2023-05-15T06:21:12.977Z,14.50
2023-05-15T06:23:39.584Z,14.40
2023-05-15T06:26:06.326Z,14.40
2023-05-15T06:28:33.054Z,14.40
2023-05-15T06:30:59.861Z,14.50
2023-05-15T06:33:26.594Z,14.30
2023-05-15T06:35:53.301Z,14.20
2023-05-15T06:38:19.948Z,14.00
2023-05-15T06:40:47.181Z,14.00
2023-05-15T06:43:13.898Z,14.00
2023-05-15T06:45:40.759Z,14.20
2023-05-15T06:48:07.494Z,14.10
2023-05-15T06:50:34.267Z,14.30
2023-05-15T06:53:01.271Z,14.20
2023-05-15T06:55:28.089Z,14.20
2023-05-15T06:57:54.894Z,14.10
2023-05-15T07:00:21.613Z,14.20
2023-05-15T07:02:48.644Z,14.30
2023-05-15T07:05:15.517Z,14.20
2023-05-15T07:07:43.072Z,14.20
2023-05-15T07:10:09.935Z,14.00
2023-05-15T07:12:36.706Z,14.10
2023-05-15T07:15:03.987Z,14.20
2023-05-15T07:17:34.294Z,14.10
2023-05-15T07:20:01.317Z,14.10
2023-05-15T07:22:29.045Z,14.30
2023-05-15T07:24:55.700Z,14.30
2023-05-15T07:27:22.466Z,14.60
2023-05-15T07:29:49.154Z,14.60
2023-05-15T07:32:15.921Z,15.00
2023-05-15T07:34:42.844Z,15.20
2023-05-15T07:37:09.886Z,15.20
2023-05-15T07:39:36.571Z,15.30
2023-05-15T07:42:03.362Z,15.80
2023-05-15T07:44:30.018Z,16.00
2023-05-15T07:46:56.972Z,16.50
2023-05-15T07:49:23.666Z,16.30
2023-05-15T07:51:50.338Z,16.50
2023-05-15T07:54:17.229Z,16.70
2023-05-15T07:56:44.318Z,16.60
2023-05-15T07:59:11.077Z,16.70
2023-05-15T08:01:37.871Z,16.80
2023-05-15T08:04:08.391Z,16.70
2023-05-15T08:06:38.026Z,16.70
2023-05-15T08:09:04.871Z,16.50
2023-05-15T08:11:31.644Z,16.60
2023-05-15T08:13:58.412Z,16.50
2023-05-15T08:16:25.169Z,16.40
2023-05-15T08:18:58.694Z,16.40
2023-05-15T08:21:25.492Z,16.50
2023-05-15T08:23:53.753Z,16.50
2023-05-15T08:26:21.113Z,16.60
2023-05-15T08:28:47.782Z,16.60
2023-05-15T08:31:14.462Z,16.50
2023-05-15T08:33:41.230Z,16.80
2023-05-15T08:36:08.478Z,17.00
2023-05-15T08:38:35.173Z,17.00
2023-05-15T08:41:18.207Z,17.00
2023-05-15T08:43:49.903Z,16.70
2023-05-15T08:46:17.323Z,17.10
2023-05-15T08:48:44.577Z,17.10
2023-05-15T08:51:11.968Z,16.40
2023-05-15T08:53:38.885Z,16.30
2023-05-15T08:56:06.060Z,16.60
2023-05-15T08:58:33.485Z,17.20
2023-05-15T09:01:01.037Z,17.40
2023-05-15T09:03:27.818Z,17.30
2023-05-15T09:05:55.099Z,17.10
2023-05-15T09:08:23.872Z,17.50
2023-05-15T09:10:53.150Z,17.50
2023-05-15T09:13:19.826Z,17.40
2023-05-15T09:15:48.029Z,17.50
2023-05-15T09:18:15.825Z,17.30
2023-05-15T09:20:42.524Z,17.20
2023-05-15T09:23:26.836Z,17.30
2023-05-15T09:25:56.268Z,17.40
2023-05-15T09:28:30.125Z,17.40
2023-05-15T09:30:59.239Z,17.30
2023-05-15T09:33:36.826Z,17.40
2023-05-15T09:36:05.449Z,16.90
2023-05-15T09:38:42.305Z,17.00
2023-05-15T09:41:09.373Z,17.00
2023-05-15T09:43:40.148Z,17.20
2023-05-15T09:46:13.054Z,17.30
2023-05-15T09:48:40.052Z,17.00
2023-05-15T09:51:18.604Z,17.00
2023-05-15T09:54:03.206Z,17.00
2023-05-15T09:56:29.972Z,16.80
2023-05-15T09:58:59.420Z,16.90
2023-05-15T10:01:27.331Z,16.80
2023-05-15T10:04:01.458Z,16.90
2023-05-15T10:06:42.823Z,16.80
2023-05-15T10:09:10.982Z,16.80
2023-05-15T10:11:39.713Z,16.90
2023-05-15T10:14:08.594Z,17.10
2023-05-15T10:16:36.721Z,17.20
2023-05-15T10:19:10.298Z,17.50
2023-05-15T10:21:41.956Z,17.20
2023-05-15T10:24:09.042Z,17.50
2023-05-15T10:26:40.829Z,17.30
2023-05-15T10:29:11.143Z,17.40
2023-05-15T10:31:39.253Z,16.80
2023-05-15T10:34:07.060Z,17.00
2023-05-15T10:36:34.953Z,16.40
2023-05-15T10:39:04.434Z,16.60
2023-05-15T10:41:36.216Z,16.30
2023-05-15T10:44:03.618Z,16.20
2023-05-15T10:46:32.996Z,16.30
2023-05-15T10:49:00.698Z,16.20
2023-05-15T10:51:33.229Z,16.50
2023-05-15T10:54:05.928Z,16.50
2023-05-15T10:56:34.157Z,15.80
2023-05-15T10:59:11.636Z,16.50
2023-05-15T11:01:40.162Z,16.50
2023-05-15T11:04:18.512Z,16.20
2023-05-15T11:06:48.146Z,16.30
2023-05-15T11:09:27.905Z,16.50
2023-05-15T11:11:57.021Z,16.20
2023-05-15T11:14:25.403Z,16.30
2023-05-15T11:16:55.296Z,16.80
2023-05-15T11:19:40.931Z,17.10
2023-05-15T11:22:27.043Z,17.20
2023-05-15T11:25:06.393Z,17.50
2023-05-15T11:27:42.876Z,17.90
2023-05-15T11:30:13.000Z,17.70
2023-05-15T11:32:52.007Z,17.30
2023-05-15T11:35:18.825Z,17.20
2023-05-15T11:37:49.622Z,17.10
2023-05-15T11:40:28.214Z,17.20
2023-05-15T11:43:04.173Z,17.30
2023-05-15T11:45:33.498Z,17.70
2023-05-15T11:48:06.515Z,18.10
2023-05-15T11:50:34.611Z,18.20
2023-05-15T11:53:09.159Z,18.40
2023-05-15T11:55:38.710Z,18.40
2023-05-15T11:58:12.788Z,17.90
2023-05-15T12:00:40.373Z,17.80
2023-05-15T12:03:11.096Z,17.40
2023-05-15T12:05:50.257Z,17.20
2023-05-15T12:08:24.795Z,17.30
2023-05-15T12:10:51.451Z,17.20
2023-05-15T12:13:19.021Z,17.70
2023-05-15T12:15:46.891Z,18.10
2023-05-15T12:18:13.926Z,17.90
2023-05-15T12:20:46.717Z,17.80
2023-05-15T12:23:17.607Z,17.00
2023-05-15T12:25:46.720Z,16.90
2023-05-15T12:28:14.423Z,16.60
2023-05-15T12:30:42.374Z,16.40
2023-05-15T12:33:10.772Z,16.80
2023-05-15T12:35:42.689Z,17.00
2023-05-15T12:38:13.948Z,17.10
2023-05-15T12:40:40.844Z,17.10
2023-05-15T12:43:10.981Z,17.60
2023-05-15T12:45:41.893Z,17.70
2023-05-15T12:48:14.776Z,17.50
2023-05-15T12:50:45.003Z,17.20
2023-05-15T12:53:14.446Z,16.80
2023-05-15T12:55:41.542Z,16.90
2023-05-15T12:58:12.705Z,17.20
2023-05-15T13:00:42.094Z,17.10
2023-05-15T13:03:10.562Z,16.90
2023-05-15T13:05:38.725Z,17.30
2023-05-15T13:08:07.480Z,17.70
2023-05-15T13:10:36.271Z,17.50
2023-05-15T13:13:03.444Z,17.70
2023-05-15T13:15:35.472Z,17.60
2023-05-15T13:18:14.056Z,17.70
2023-05-15T13:20:49.157Z,17.60
2023-05-15T13:23:18.384Z,17.70
2023-05-15T13:25:45.313Z,17.90
2023-05-15T13:28:12.852Z,18.20
2023-05-15T13:30:43.401Z,18.00
2023-05-15T13:33:12.359Z,18.00
2023-05-15T13:35:40.293Z,18.40
2023-05-15T13:38:10.361Z,18.10
2023-05-15T13:40:38.582Z,17.40
2023-05-15T13:43:08.329Z,17.60
2023-05-15T13:45:35.254Z,17.50
2023-05-15T13:48:02.046Z,17.60
2023-05-15T13:50:28.917Z,17.60
2023-05-15T13:52:55.874Z,17.40
2023-05-15T13:55:23.272Z,17.10
2023-05-15T13:57:51.228Z,17.20
2023-05-15T14:00:18.628Z,17.40
2023-05-15T14:02:45.911Z,17.40
2023-05-15T14:05:14.425Z,17.10
2023-05-15T14:07:41.794Z,17.10
2023-05-15T14:10:09.324Z,17.00
2023-05-15T14:12:37.377Z,17.10
2023-05-15T14:15:04.586Z,16.90
2023-05-15T14:17:31.326Z,16.90
2023-05-15T14:19:58.125Z,16.90
2023-05-15T14:22:25.160Z,17.00
2023-05-15T14:24:54.843Z,17.10
2023-05-15T14:27:21.548Z,17.50
2023-05-15T14:29:49.096Z,18.00
2023-05-15T14:32:16.579Z,17.90
2023-05-15T14:34:44.285Z,18.20
2023-05-15T14:37:11.022Z,18.50
2023-05-15T14:39:37.886Z,18.40
2023-05-15T14:42:06.242Z,18.40
2023-05-15T14:44:33.798Z,18.50
2023-05-15T14:47:12.682Z,18.40
2023-05-15T14:49:40.609Z,18.10
2023-05-15T14:52:09.228Z,18.60
2023-05-15T14:54:37.100Z,18.60
2023-05-15T14:57:04.040Z,18.50
2023-05-15T14:59:30.875Z,18.30
2023-05-15T15:01:57.668Z,18.30
2023-05-15T15:04:26.481Z,18.10
2023-05-15T15:06:56.676Z,17.80
2023-05-15T15:09:24.290Z,17.90
2023-05-15T15:11:51.320Z,17.50
2023-05-15T15:14:18.121Z,17.90
2023-05-15T15:16:45.931Z,17.50
2023-05-15T15:19:13.485Z,17.60
2023-05-15T15:21:40.403Z,17.80
2023-05-15T15:24:07.478Z,17.70
2023-05-15T15:26:34.268Z,17.80
2023-05-15T15:29:01.085Z,17.80
2023-05-15T15:31:31.646Z,17.70
2023-05-15T15:33:58.807Z,17.90
2023-05-15T15:36:25.861Z,18.10
2023-05-15T15:38:52.575Z,17.90
2023-05-15T15:41:21.328Z,18.10
2023-05-15T15:43:48.234Z,17.80
2023-05-15T15:46:15.119Z,17.80
2023-05-15T15:48:41.812Z,17.90
2023-05-15T15:51:08.597Z,17.90
2023-05-15T15:53:35.353Z,17.60
2023-05-15T15:56:02.016Z,17.60
2023-05-15T15:58:29.805Z,17.60
2023-05-15T16:00:57.081Z,17.50
2023-05-15T16:03:23.966Z,17.00
2023-05-15T16:05:51.678Z,16.20
2023-05-15T16:08:18.522Z,16.30
2023-05-15T16:10:45.237Z,16.40
2023-05-15T16:13:12.019Z,16.20
2023-05-15T16:15:38.678Z,16.30
2023-05-15T16:18:05.441Z,16.70
2023-05-15T16:20:32.965Z,16.70
2023-05-15T16:23:01.655Z,16.60
2023-05-15T16:25:28.372Z,16.30
2023-05-15T16:27:55.030Z,16.30
2023-05-15T16:32:48.753Z,16.40
2023-05-15T16:35:15.697Z,16.80
2023-05-15T16:37:42.473Z,17.00
2023-05-15T16:40:09.827Z,17.10
2023-05-15T16:42:38.021Z,17.10
2023-05-15T16:45:06.101Z,17.20
2023-05-15T16:47:32.908Z,17.50
2023-05-15T16:49:59.852Z,17.70
2023-05-15T16:52:26.635Z,17.60
2023-05-15T16:54:53.563Z,17.40
2023-05-15T16:57:20.392Z,17.00
2023-05-15T16:59:47.854Z,16.50
2023-05-15T17:02:14.808Z,16.20
2023-05-15T17:04:41.602Z,16.00
2023-05-15T17:07:09.167Z,15.60
2023-05-15T17:09:38.313Z,15.40
2023-05-15T17:12:05.693Z,15.30
2023-05-15T17:14:32.401Z,15.20
2023-05-15T17:16:59.083Z,15.20
2023-05-15T17:19:25.828Z,15.00
2023-05-15T17:21:52.521Z,14.90
2023-05-15T17:24:19.263Z,14.90
2023-05-15T17:26:45.929Z,14.90
2023-05-15T17:29:12.610Z,14.90
2023-05-15T17:31:41.104Z,14.90
2023-05-15T17:34:07.885Z,14.80
2023-05-15T17:36:34.638Z,14.80
2023-05-15T17:39:01.398Z,15.00
2023-05-15T17:41:29.097Z,15.10
2023-05-15T17:43:55.754Z,15.30
2023-05-15T17:46:22.445Z,15.10
2023-05-15T17:48:49.191Z,15.10
2023-05-15T17:51:15.915Z,15.00
2023-05-15T17:53:42.649Z,14.80
2023-05-15T17:56:09.364Z,14.60
2023-05-15T17:58:36.045Z,14.50
2023-05-15T18:01:03.229Z,14.40
2023-05-15T18:03:30.019Z,14.30
2023-05-15T18:05:57.059Z,14.30
2023-05-15T18:08:23.767Z,14.30
2023-05-15T18:10:50.699Z,14.20
2023-05-15T18:13:17.551Z,14.20
2023-05-15T18:15:44.281Z,14.10
2023-05-15T18:18:11.046Z,14.00
2023-05-15T18:20:37.873Z,13.90
2023-05-15T18:23:04.537Z,13.90
2023-05-15T18:25:31.204Z,13.80
2023-05-15T18:27:57.888Z,13.70
2023-05-15T18:30:24.743Z,13.60
2023-05-15T18:32:51.515Z,13.30
2023-05-15T18:35:18.306Z,13.20
2023-05-15T18:37:44.939Z,13.00
2023-05-15T18:40:11.985Z,12.80
2023-05-15T18:42:38.703Z,12.50
2023-05-15T18:45:06.377Z,12.50
2023-05-15T18:47:33.304Z,12.50
2023-05-15T18:49:59.991Z,12.50
2023-05-15T18:52:26.959Z,12.30
2023-05-15T18:54:54.159Z,12.30
2023-05-15T18:57:21.053Z,12.30
2023-05-15T18:59:48.013Z,12.30
2023-05-15T19:04:41.617Z,12.30
2023-05-15T19:07:08.266Z,12.30
2023-05-15T19:09:35.499Z,12.30
2023-05-15T19:12:02.935Z,12.30
2023-05-15T19:14:29.722Z,12.40
2023-05-15T19:16:56.521Z,12.40
2023-05-15T19:19:23.529Z,12.50
2023-05-15T19:21:51.813Z,12.50
2023-05-15T19:24:18.890Z,12.50
2023-05-15T19:26:45.913Z,12.60
2023-05-15T19:29:12.648Z,12.60
2023-05-15T19:31:39.660Z,12.60
2023-05-15T19:34:06.366Z,12.60
2023-05-15T19:36:33.216Z,12.60
2023-05-15T19:38:59.922Z,12.60
2023-05-15T19:41:26.971Z,12.50
2023-05-15T19:43:53.618Z,12.50
2023-05-15T19:46:20.340Z,12.50
2023-05-15T19:48:47.177Z,12.50
2023-05-15T19:51:13.835Z,12.50
2023-05-15T19:53:41.430Z,12.50
2023-05-15T19:56:08.217Z,12.50
2023-05-15T19:58:35.019Z,12.50
2023-05-15T20:01:01.823Z,12.50
2023-05-15T20:03:33.151Z,12.50
2023-05-15T20:06:01.421Z,12.50
2023-05-15T20:08:28.749Z,12.40
2023-05-15T20:10:55.903Z,12.30
2023-05-15T20:13:23.005Z,12.30
2023-05-15T20:15:57.604Z,12.30
2023-05-15T20:18:28.700Z,12.30
2023-05-15T20:20:55.716Z,12.30
2023-05-15T20:23:22.390Z,12.20
2023-05-15T20:25:50.157Z,12.30
2023-05-15T20:28:17.774Z,12.20
2023-05-15T20:30:47.345Z,12.30
2023-05-15T20:33:14.627Z,12.20
2023-05-15T20:35:43.450Z,12.20
2023-05-15T20:38:10.410Z,12.20
2023-05-15T20:40:37.376Z,12.20
2023-05-15T20:43:04.521Z,12.00
2023-05-15T20:45:32.291Z,12.00
2023-05-15T20:47:59.234Z,11.90
2023-05-15T20:50:26.482Z,12.00
2023-05-15T20:52:53.411Z,12.00
2023-05-15T20:55:21.532Z,12.00
2023-05-15T20:57:49.027Z,12.00
2023-05-15T21:00:17.925Z,12.00
2023-05-15T21:02:45.752Z,12.10
2023-05-15T21:05:12.629Z,12.10
2023-05-15T21:07:39.376Z,12.00
2023-05-15T21:10:06.700Z,12.10
2023-05-15T21:12:34.169Z,12.10
2023-05-15T21:15:01.943Z,12.10
2023-05-15T21:17:28.750Z,12.10
2023-05-15T21:19:57.602Z,12.10
2023-05-15T21:22:24.664Z,12.20
2023-05-15T21:24:51.787Z,12.20
2023-05-15T21:27:18.682Z,12.10
2023-05-15T21:29:45.713Z,12.10
2023-05-15T21:32:12.514Z,12.10
2023-05-15T21:34:39.640Z,12.10
2023-05-15T21:37:06.431Z,12.00
2023-05-15T21:39:33.084Z,12.10
2023-05-15T21:41:59.741Z,12.10
2023-05-15T21:44:26.565Z,12.10
2023-05-15T21:46:53.345Z,12.00
2023-05-15T21:49:20.097Z,12.00
2023-05-15T21:51:46.888Z,12.00
2023-05-15T21:54:13.626Z,11.90
2023-05-15T21:56:41.137Z,11.90
2023-05-15T21:59:08.004Z,11.80
2023-05-15T22:01:36.097Z,11.80
2023-05-15T22:04:03.028Z,11.70
2023-05-15T22:06:29.798Z,11.80
2023-05-15T22:08:57.523Z,11.70
2023-05-15T22:11:24.278Z,11.80
2023-05-15T22:13:51.042Z,11.70
2023-05-15T22:16:17.937Z,11.70
2023-05-15T22:18:45.195Z,11.70
2023-05-15T22:21:11.980Z,11.60
2023-05-15T22:23:38.727Z,11.60
2023-05-15T22:26:05.576Z,11.60
2023-05-15T22:28:32.244Z,11.60
2023-05-15T22:30:58.920Z,11.50
2023-05-15T22:33:25.628Z,11.50
2023-05-15T22:35:53.155Z,11.50
2023-05-15T22:38:20.470Z,11.50
2023-05-15T22:40:53.680Z,11.50
2023-05-15T22:43:22.028Z,11.40
2023-05-15T22:45:48.749Z,11.40
2023-05-15T22:48:15.643Z,11.40
2023-05-15T22:50:43.709Z,11.40
2023-05-15T22:53:10.489Z,11.50
2023-05-15T22:55:37.273Z,11.40
2023-05-15T22:58:04.153Z,11.40
2023-05-15T23:00:31.365Z,11.50
2023-05-15T23:02:58.169Z,11.40
2023-05-15T23:05:25.454Z,11.40
2023-05-15T23:07:52.699Z,11.40
2023-05-15T23:10:19.525Z,11.30
2023-05-15T23:12:46.700Z,11.40
2023-05-15T23:15:13.464Z,11.30
2023-05-15T23:17:40.191Z,11.30
2023-05-15T23:20:10.289Z,11.30
2023-05-15T23:22:37.218Z,11.30
2023-05-15T23:25:04.189Z,11.30
2023-05-15T23:27:30.949Z,11.30
2023-05-15T23:29:57.800Z,11.30
2023-05-15T23:32:24.494Z,11.30
2023-05-15T23:34:52.057Z,11.30
2023-05-15T23:37:18.846Z,11.30
2023-05-15T23:39:45.580Z,11.30
2023-05-15T23:42:12.476Z,11.30
2023-05-15T23:44:39.165Z,11.30
2023-05-15T23:47:06.460Z,11.30
2023-05-15T23:49:33.642Z,11.20
2023-05-15T23:52:00.546Z,11.20
2023-05-15T23:54:27.920Z,11.20
2023-05-15T23:56:54.818Z,11.10
2023-05-15T23:59:21.597Z,11.10
